sensor_id;sensor_type;location;lat;lon;timestamp;temperature;humidity
15922;DHT22;8060;50.948;3.146;2023-06-10T06:57:46;23.90;99.90
15922;DHT22;8060;50.948;3.146;2023-06-10T07:00:15;24.10;99.90
15922;DHT22;8060;50.948;3.146;2023-06-10T07:02:43;24.20;99.90
15922;DHT22;8060;50.948;3.146;2023-06-10T07:35:28;25.50;99.90
15922;DHT22;8060;50.948;3.146;2023-06-10T07:37:57;25.70;99.90
15922;DHT22;8060;50.948;3.146;2023-06-10T07:40:25;25.90;99.90
15922;DHT22;8060;50.948;3.146;2023-06-10T07:42:53;26.10;99.90
15922;DHT22;8060;50.948;3.146;2023-06-10T07:45:21;26.40;99.90
15922;DHT22;8060;50.948;3.146;2023-06-10T07:47:49;26.60;99.90
15922;DHT22;8060;50.948;3.146;2023-06-10T07:50:18;26.70;99.90
15922;DHT22;8060;50.948;3.146;2023-06-10T07:52:47;26.80;99.90
15922;DHT22;8060;50.948;3.146;2023-06-10T07:55:15;27.00;99.90
15922;DHT22;8060;50.948;3.146;2023-06-10T07:57:43;27.20;99.90
15922;DHT22;8060;50.948;3.146;2023-06-10T08:00:12;27.30;99.90
15922;DHT22;8060;50.948;3.146;2023-06-10T08:02:40;27.40;99.90
15922;DHT22;8060;50.948;3.146;2023-06-10T08:05:08;27.60;99.90
15922;DHT22;8060;50.948;3.146;2023-06-10T08:07:37;27.80;99.90
15922;DHT22;8060;50.948;3.146;2023-06-10T08:10:08;27.90;99.90
15922;DHT22;8060;50.948;3.146;2023-06-10T08:12:37;27.90;99.90
15922;DHT22;8060;50.948;3.146;2023-06-10T08:15:07;27.90;99.90
15922;DHT22;8060;50.948;3.146;2023-06-10T08:17:37;28.10;99.90
15922;DHT22;8060;50.948;3.146;2023-06-10T08:20:07;28.20;99.90
15922;DHT22;8060;50.948;3.146;2023-06-10T08:22:35;28.30;99.90
15922;DHT22;8060;50.948;3.146;2023-06-10T08:25:03;28.50;99.90
15922;DHT22;8060;50.948;3.146;2023-06-10T08:27:33;28.50;99.90
15922;DHT22;8060;50.948;3.146;2023-06-10T08:30:01;28.60;99.90
15922;DHT22;8060;50.948;3.146;2023-06-10T08:32:30;28.60;99.90
15922;DHT22;8060;50.948;3.146;2023-06-10T08:34:58;28.80;99.90
15922;DHT22;8060;50.948;3.146;2023-06-10T08:37:26;29.00;99.90
15922;DHT22;8060;50.948;3.146;2023-06-10T08:39:54;29.10;99.90
15922;DHT22;8060;50.948;3.146;2023-06-10T08:42:24;29.20;99.90
15922;DHT22;8060;50.948;3.146;2023-06-10T08:44:57;29.40;99.90
15922;DHT22;8060;50.948;3.146;2023-06-10T08:47:29;29.40;99.90
15922;DHT22;8060;50.948;3.146;2023-06-10T08:50:02;29.50;99.90
15922;DHT22;8060;50.948;3.146;2023-06-10T08:52:35;29.60;99.90
15922;DHT22;8060;50.948;3.146;2023-06-10T08:55:10;29.70;99.90
15922;DHT22;8060;50.948;3.146;2023-06-10T08:57:40;29.80;99.90
15922;DHT22;8060;50.948;3.146;2023-06-10T09:00:12;29.90;99.90
15922;DHT22;8060;50.948;3.146;2023-06-10T09:02:40;30.00;99.90
15922;DHT22;8060;50.948;3.146;2023-06-10T09:05:09;30.10;99.90
15922;DHT22;8060;50.948;3.146;2023-06-10T09:07:37;30.20;99.90
15922;DHT22;8060;50.948;3.146;2023-06-10T09:10:07;30.20;99.90
15922;DHT22;8060;50.948;3.146;2023-06-10T09:12:35;30.40;99.90
15922;DHT22;8060;50.948;3.146;2023-06-10T09:15:05;30.50;99.90
15922;DHT22;8060;50.948;3.146;2023-06-10T09:17:36;30.70;99.90
15922;DHT22;8060;50.948;3.146;2023-06-10T09:20:06;30.90;99.90
15922;DHT22;8060;50.948;3.146;2023-06-10T09:22:37;31.10;99.90
15922;DHT22;8060;50.948;3.146;2023-06-10T09:25:06;31.30;99.90
15922;DHT22;8060;50.948;3.146;2023-06-10T09:27:44;31.40;99.90
15922;DHT22;8060;50.948;3.146;2023-06-10T09:30:25;31.50;99.90
15922;DHT22;8060;50.948;3.146;2023-06-10T09:32:56;31.70;99.90
15922;DHT22;8060;50.948;3.146;2023-06-10T09:35:27;31.80;99.90
15922;DHT22;8060;50.948;3.146;2023-06-10T09:37:56;31.80;99.90
15922;DHT22;8060;50.948;3.146;2023-06-10T09:40:25;31.90;99.90
15922;DHT22;8060;50.948;3.146;2023-06-10T09:42:54;32.00;99.90
15922;DHT22;8060;50.948;3.146;2023-06-10T09:45:23;32.10;99.90
15922;DHT22;8060;50.948;3.146;2023-06-10T09:47:56;32.20;99.90
15922;DHT22;8060;50.948;3.146;2023-06-10T09:50:25;32.10;99.90
15922;DHT22;8060;50.948;3.146;2023-06-10T09:52:53;32.10;99.90
15922;DHT22;8060;50.948;3.146;2023-06-10T09:55:21;32.20;99.90
15922;DHT22;8060;50.948;3.146;2023-06-10T09:57:49;32.20;99.90
15922;DHT22;8060;50.948;3.146;2023-06-10T10:00:22;32.10;99.90
15922;DHT22;8060;50.948;3.146;2023-06-10T10:02:52;32.30;99.90
15922;DHT22;8060;50.948;3.146;2023-06-10T10:05:23;32.40;99.90
15922;DHT22;8060;50.948;3.146;2023-06-10T10:07:51;32.60;99.90
15922;DHT22;8060;50.948;3.146;2023-06-10T10:10:21;32.90;99.90
15922;DHT22;8060;50.948;3.146;2023-06-10T10:12:52;33.00;99.90
15922;DHT22;8060;50.948;3.146;2023-06-10T10:15:25;33.00;99.90
15922;DHT22;8060;50.948;3.146;2023-06-10T10:18:03;32.90;99.90
15922;DHT22;8060;50.948;3.146;2023-06-10T10:20:42;33.00;99.90
15922;DHT22;8060;50.948;3.146;2023-06-10T10:23:14;33.00;99.90
15922;DHT22;8060;50.948;3.146;2023-06-10T10:25:43;33.00;99.90
15922;DHT22;8060;50.948;3.146;2023-06-10T10:28:13;33.10;99.90
15922;DHT22;8060;50.948;3.146;2023-06-10T10:30:47;33.30;99.90
15922;DHT22;8060;50.948;3.146;2023-06-10T10:33:19;33.20;99.40
15922;DHT22;8060;50.948;3.146;2023-06-10T10:35:51;33.20;99.70
15922;DHT22;8060;50.948;3.146;2023-06-10T10:38:19;33.30;99.20
15922;DHT22;8060;50.948;3.146;2023-06-10T10:40:49;33.30;97.50
15922;DHT22;8060;50.948;3.146;2023-06-10T10:43:18;33.40;97.40
15922;DHT22;8060;50.948;3.146;2023-06-10T10:45:48;33.40;96.60
15922;DHT22;8060;50.948;3.146;2023-06-10T10:48:26;33.50;97.20
15922;DHT22;8060;50.948;3.146;2023-06-10T10:50:58;33.60;96.70
15922;DHT22;8060;50.948;3.146;2023-06-10T10:53:26;33.70;96.30
15922;DHT22;8060;50.948;3.146;2023-06-10T10:56:05;33.80;95.20
15922;DHT22;8060;50.948;3.146;2023-06-10T10:58:33;33.90;95.00
15922;DHT22;8060;50.948;3.146;2023-06-10T11:01:10;34.00;94.70
15922;DHT22;8060;50.948;3.146;2023-06-10T11:03:43;34.10;94.30
15922;DHT22;8060;50.948;3.146;2023-06-10T11:06:16;34.10;92.10
15922;DHT22;8060;50.948;3.146;2023-06-10T11:08:49;34.10;92.00
15922;DHT22;8060;50.948;3.146;2023-06-10T11:11:23;34.20;91.90
15922;DHT22;8060;50.948;3.146;2023-06-10T11:14:05;34.10;92.20
15922;DHT22;8060;50.948;3.146;2023-06-10T11:16:40;34.20;93.10
15922;DHT22;8060;50.948;3.146;2023-06-10T11:19:09;34.30;93.00
15922;DHT22;8060;50.948;3.146;2023-06-10T11:21:57;34.50;91.40
15922;DHT22;8060;50.948;3.146;2023-06-10T11:24:28;34.60;91.40
15922;DHT22;8060;50.948;3.146;2023-06-10T11:27:15;34.60;90.80
15922;DHT22;8060;50.948;3.146;2023-06-10T11:30:20;34.60;90.40
15922;DHT22;8060;50.948;3.146;2023-06-10T11:32:51;34.60;89.70
15922;DHT22;8060;50.948;3.146;2023-06-10T11:35:23;34.60;90.30
15922;DHT22;8060;50.948;3.146;2023-06-10T11:37:53;34.70;89.60
15922;DHT22;8060;50.948;3.146;2023-06-10T11:40:22;34.80;88.90
15922;DHT22;8060;50.948;3.146;2023-06-10T11:42:50;34.80;89.80
15922;DHT22;8060;50.948;3.146;2023-06-10T11:45:19;35.10;90.00
15922;DHT22;8060;50.948;3.146;2023-06-10T11:47:56;35.00;87.00
15922;DHT22;8060;50.948;3.146;2023-06-10T11:50:29;35.00;87.50
15922;DHT22;8060;50.948;3.146;2023-06-10T11:52:59;35.00;84.70
15922;DHT22;8060;50.948;3.146;2023-06-10T11:55:41;34.80;83.50
15922;DHT22;8060;50.948;3.146;2023-06-10T11:58:13;34.80;83.90
15922;DHT22;8060;50.948;3.146;2023-06-10T12:00:47;35.00;85.20
15922;DHT22;8060;50.948;3.146;2023-06-10T12:03:16;35.00;82.00
15922;DHT22;8060;50.948;3.146;2023-06-10T12:05:55;35.10;83.30
15922;DHT22;8060;50.948;3.146;2023-06-10T12:08:25;35.30;82.30
15922;DHT22;8060;50.948;3.146;2023-06-10T12:10:54;35.40;82.60
15922;DHT22;8060;50.948;3.146;2023-06-10T12:13:23;35.50;81.00
15922;DHT22;8060;50.948;3.146;2023-06-10T12:15:51;35.40;81.20
15922;DHT22;8060;50.948;3.146;2023-06-10T12:18:20;35.40;80.60
15922;DHT22;8060;50.948;3.146;2023-06-10T12:20:49;35.50;80.30
15922;DHT22;8060;50.948;3.146;2023-06-10T12:23:18;35.50;80.70
15922;DHT22;8060;50.948;3.146;2023-06-10T12:25:51;35.50;79.80
15922;DHT22;8060;50.948;3.146;2023-06-10T12:28:21;35.50;79.20
15922;DHT22;8060;50.948;3.146;2023-06-10T12:30:49;35.50;79.60
15922;DHT22;8060;50.948;3.146;2023-06-10T12:33:18;35.50;80.00
15922;DHT22;8060;50.948;3.146;2023-06-10T12:35:49;35.50;81.00
15922;DHT22;8060;50.948;3.146;2023-06-10T12:38:22;35.50;78.70
15922;DHT22;8060;50.948;3.146;2023-06-10T12:40:52;35.50;79.40
15922;DHT22;8060;50.948;3.146;2023-06-10T12:43:21;35.60;80.70
15922;DHT22;8060;50.948;3.146;2023-06-10T12:45:50;35.60;78.00
15922;DHT22;8060;50.948;3.146;2023-06-10T12:48:19;35.40;77.60
15922;DHT22;8060;50.948;3.146;2023-06-10T12:50:51;35.20;79.10
15922;DHT22;8060;50.948;3.146;2023-06-10T12:53:20;35.30;79.30
15922;DHT22;8060;50.948;3.146;2023-06-10T12:55:50;35.00;76.50
15922;DHT22;8060;50.948;3.146;2023-06-10T12:58:21;34.90;78.10
15922;DHT22;8060;50.948;3.146;2023-06-10T13:00:50;35.00;79.10
15922;DHT22;8060;50.948;3.146;2023-06-10T13:03:19;35.00;77.90
15922;DHT22;8060;50.948;3.146;2023-06-10T13:05:48;35.00;78.30
15922;DHT22;8060;50.948;3.146;2023-06-10T13:08:16;35.20;76.40
15922;DHT22;8060;50.948;3.146;2023-06-10T13:10:44;35.20;76.80
15922;DHT22;8060;50.948;3.146;2023-06-10T13:13:12;35.20;76.20
15922;DHT22;8060;50.948;3.146;2023-06-10T13:15:42;35.20;77.10
15922;DHT22;8060;50.948;3.146;2023-06-10T13:18:10;35.10;77.40
15922;DHT22;8060;50.948;3.146;2023-06-10T13:20:39;35.20;78.60
15922;DHT22;8060;50.948;3.146;2023-06-10T13:23:07;35.00;76.00
15922;DHT22;8060;50.948;3.146;2023-06-10T13:25:36;34.80;76.90
15922;DHT22;8060;50.948;3.146;2023-06-10T13:28:04;34.60;76.50
15922;DHT22;8060;50.948;3.146;2023-06-10T13:30:32;34.70;78.30
15922;DHT22;8060;50.948;3.146;2023-06-10T13:33:01;34.80;77.90
15922;DHT22;8060;50.948;3.146;2023-06-10T13:35:30;34.90;77.50
15922;DHT22;8060;50.948;3.146;2023-06-10T13:37:58;35.00;77.60
15922;DHT22;8060;50.948;3.146;2023-06-10T13:40:26;34.80;76.00
15922;DHT22;8060;50.948;3.146;2023-06-10T13:42:54;34.80;77.00
15922;DHT22;8060;50.948;3.146;2023-06-10T13:45:23;34.70;76.90
15922;DHT22;8060;50.948;3.146;2023-06-10T13:47:51;34.50;75.70
15922;DHT22;8060;50.948;3.146;2023-06-10T13:50:21;34.30;77.50
15922;DHT22;8060;50.948;3.146;2023-06-10T13:52:49;34.10;77.70
15922;DHT22;8060;50.948;3.146;2023-06-10T13:55:17;33.90;77.40
15922;DHT22;8060;50.948;3.146;2023-06-10T13:57:47;33.70;77.50
15922;DHT22;8060;50.948;3.146;2023-06-10T14:00:15;33.50;77.60
15922;DHT22;8060;50.948;3.146;2023-06-10T14:02:43;33.30;77.30
15922;DHT22;8060;50.948;3.146;2023-06-10T14:05:13;33.20;77.80
15922;DHT22;8060;50.948;3.146;2023-06-10T14:07:43;33.20;78.40
15922;DHT22;8060;50.948;3.146;2023-06-10T14:10:11;33.40;78.30
15922;DHT22;8060;50.948;3.146;2023-06-10T14:12:39;33.40;78.60
15922;DHT22;8060;50.948;3.146;2023-06-10T14:15:08;33.40;78.10
15922;DHT22;8060;50.948;3.146;2023-06-10T14:17:36;33.50;78.40
15922;DHT22;8060;50.948;3.146;2023-06-10T14:20:05;33.70;77.50
15922;DHT22;8060;50.948;3.146;2023-06-10T14:22:34;33.80;77.50
15922;DHT22;8060;50.948;3.146;2023-06-10T14:25:04;33.90;76.60
15922;DHT22;8060;50.948;3.146;2023-06-10T14:27:33;33.80;75.40
15922;DHT22;8060;50.948;3.146;2023-06-10T14:30:01;33.70;76.10
15922;DHT22;8060;50.948;3.146;2023-06-10T14:32:30;33.60;75.50
15922;DHT22;8060;50.948;3.146;2023-06-10T14:34:59;33.60;75.40
15922;DHT22;8060;50.948;3.146;2023-06-10T14:37:27;33.70;76.60
15922;DHT22;8060;50.948;3.146;2023-06-10T14:39:55;33.90;75.80
15922;DHT22;8060;50.948;3.146;2023-06-10T14:42:25;34.00;75.10
15922;DHT22;8060;50.948;3.146;2023-06-10T14:44:53;34.10;75.60
15922;DHT22;8060;50.948;3.146;2023-06-10T14:47:21;34.20;75.20
15922;DHT22;8060;50.948;3.146;2023-06-10T14:49:49;34.00;75.30
15922;DHT22;8060;50.948;3.146;2023-06-10T14:52:17;34.10;75.30
15922;DHT22;8060;50.948;3.146;2023-06-10T14:54:45;34.20;74.90
15922;DHT22;8060;50.948;3.146;2023-06-10T14:57:13;34.30;75.40
15922;DHT22;8060;50.948;3.146;2023-06-10T14:59:43;34.50;78.10
15922;DHT22;8060;50.948;3.146;2023-06-10T15:02:11;34.60;76.40
15922;DHT22;8060;50.948;3.146;2023-06-10T15:04:39;34.70;75.80
15922;DHT22;8060;50.948;3.146;2023-06-10T15:07:07;34.70;75.10
15922;DHT22;8060;50.948;3.146;2023-06-10T15:09:35;34.40;74.30
15922;DHT22;8060;50.948;3.146;2023-06-10T15:12:04;34.10;75.00
15922;DHT22;8060;50.948;3.146;2023-06-10T15:14:32;34.10;75.30
15922;DHT22;8060;50.948;3.146;2023-06-10T15:17:02;34.00;76.40
15922;DHT22;8060;50.948;3.146;2023-06-10T15:19:30;33.90;76.10
15922;DHT22;8060;50.948;3.146;2023-06-10T15:21:58;34.00;75.90
15922;DHT22;8060;50.948;3.146;2023-06-10T15:24:26;34.00;76.00
15922;DHT22;8060;50.948;3.146;2023-06-10T15:26:54;34.10;75.80
15922;DHT22;8060;50.948;3.146;2023-06-10T15:29:22;34.20;75.30
15922;DHT22;8060;50.948;3.146;2023-06-10T15:31:51;34.20;75.80
15922;DHT22;8060;50.948;3.146;2023-06-10T15:34:20;34.20;75.70
15922;DHT22;8060;50.948;3.146;2023-06-10T15:36:48;34.20;75.10
15922;DHT22;8060;50.948;3.146;2023-06-10T15:39:16;34.20;74.80
15922;DHT22;8060;50.948;3.146;2023-06-10T15:41:45;34.10;75.50
15922;DHT22;8060;50.948;3.146;2023-06-10T15:44:13;33.90;75.30
15922;DHT22;8060;50.948;3.146;2023-06-10T15:46:42;33.70;74.60
15922;DHT22;8060;50.948;3.146;2023-06-10T15:49:10;33.60;74.50
15922;DHT22;8060;50.948;3.146;2023-06-10T15:51:39;33.50;76.50
15922;DHT22;8060;50.948;3.146;2023-06-10T15:54:14;33.30;75.90
15922;DHT22;8060;50.948;3.146;2023-06-10T15:56:42;33.20;75.80
15922;DHT22;8060;50.948;3.146;2023-06-10T15:59:11;33.30;76.80
15922;DHT22;8060;50.948;3.146;2023-06-10T16:08:15;33.00;75.30
15922;DHT22;8060;50.948;3.146;2023-06-10T16:10:43;32.90;76.60
15922;DHT22;8060;50.948;3.146;2023-06-10T16:13:11;33.10;76.60
15922;DHT22;8060;50.948;3.146;2023-06-10T16:15:39;33.10;76.60
15922;DHT22;8060;50.948;3.146;2023-06-10T16:18:07;33.20;75.10
15922;DHT22;8060;50.948;3.146;2023-06-10T16:20:36;33.30;75.80
15922;DHT22;8060;50.948;3.146;2023-06-10T16:23:05;33.40;75.20
15922;DHT22;8060;50.948;3.146;2023-06-10T16:25:34;33.50;76.10
15922;DHT22;8060;50.948;3.146;2023-06-10T16:28:03;33.30;75.90
15922;DHT22;8060;50.948;3.146;2023-06-10T16:30:31;33.30;75.60
15922;DHT22;8060;50.948;3.146;2023-06-10T16:33:00;33.20;76.60
15922;DHT22;8060;50.948;3.146;2023-06-10T16:35:28;33.20;77.20
15922;DHT22;8060;50.948;3.146;2023-06-10T16:37:56;33.10;77.00
15922;DHT22;8060;50.948;3.146;2023-06-10T16:40:29;33.20;77.90
15922;DHT22;8060;50.948;3.146;2023-06-10T16:42:58;33.20;77.20
15922;DHT22;8060;50.948;3.146;2023-06-10T16:45:26;33.30;77.50
15922;DHT22;8060;50.948;3.146;2023-06-10T17:26:57;32.10;78.00
15922;DHT22;8060;50.948;3.146;2023-06-10T17:29:25;32.10;78.80
15922;DHT22;8060;50.948;3.146;2023-06-10T17:31:53;32.00;78.40
15922;DHT22;8060;50.948;3.146;2023-06-10T17:34:21;31.90;76.80
15922;DHT22;8060;50.948;3.146;2023-06-10T17:36:50;31.80;77.30
15922;DHT22;8060;50.948;3.146;2023-06-10T17:39:18;31.70;78.00
15922;DHT22;8060;50.948;3.146;2023-06-10T17:41:46;31.70;77.30
15922;DHT22;8060;50.948;3.146;2023-06-10T17:44:16;31.60;77.80
15922;DHT22;8060;50.948;3.146;2023-06-10T17:46:48;31.50;78.10
15922;DHT22;8060;50.948;3.146;2023-06-10T17:49:16;31.50;78.30
15922;DHT22;8060;50.948;3.146;2023-06-10T17:51:44;31.30;79.30
15922;DHT22;8060;50.948;3.146;2023-06-10T17:54:12;31.40;79.10
15922;DHT22;8060;50.948;3.146;2023-06-10T17:56:40;31.30;79.30
15922;DHT22;8060;50.948;3.146;2023-06-10T17:59:08;31.20;80.00
15922;DHT22;8060;50.948;3.146;2023-06-10T18:01:38;31.10;80.70
15922;DHT22;8060;50.948;3.146;2023-06-10T18:04:06;31.00;81.10
15922;DHT22;8060;50.948;3.146;2023-06-10T18:06:34;31.00;81.00
15922;DHT22;8060;50.948;3.146;2023-06-10T18:09:03;31.00;81.20
15922;DHT22;8060;50.948;3.146;2023-06-10T18:11:32;30.90;81.10
15922;DHT22;8060;50.948;3.146;2023-06-10T18:14:00;30.80;81.80
15922;DHT22;8060;50.948;3.146;2023-06-10T18:16:28;30.80;82.10
15922;DHT22;8060;50.948;3.146;2023-06-10T18:18:57;30.70;82.90
15922;DHT22;8060;50.948;3.146;2023-06-10T18:21:25;30.70;83.80
15922;DHT22;8060;50.948;3.146;2023-06-10T18:23:54;30.60;83.50
15922;DHT22;8060;50.948;3.146;2023-06-10T18:26:22;30.60;84.00
15922;DHT22;8060;50.948;3.146;2023-06-10T18:28:50;30.50;85.20
15922;DHT22;8060;50.948;3.146;2023-06-10T18:31:18;30.50;85.30
15922;DHT22;8060;50.948;3.146;2023-06-10T18:33:46;30.40;85.30
15922;DHT22;8060;50.948;3.146;2023-06-10T18:36:16;30.50;86.70
15922;DHT22;8060;50.948;3.146;2023-06-10T18:38:44;30.40;87.20
15922;DHT22;8060;50.948;3.146;2023-06-10T18:41:12;30.30;88.70
15922;DHT22;8060;50.948;3.146;2023-06-10T18:43:40;30.20;87.80
15922;DHT22;8060;50.948;3.146;2023-06-10T18:46:09;30.20;88.50
15922;DHT22;8060;50.948;3.146;2023-06-10T18:48:37;30.30;88.30
15922;DHT22;8060;50.948;3.146;2023-06-10T18:51:06;30.20;88.10
15922;DHT22;8060;50.948;3.146;2023-06-10T18:53:36;30.10;88.00
15922;DHT22;8060;50.948;3.146;2023-06-10T18:56:04;30.00;88.30
15922;DHT22;8060;50.948;3.146;2023-06-10T18:58:32;30.00;88.10
15922;DHT22;8060;50.948;3.146;2023-06-10T19:01:02;29.90;88.80
15922;DHT22;8060;50.948;3.146;2023-06-10T19:03:31;29.80;89.20
15922;DHT22;8060;50.948;3.146;2023-06-10T19:05:59;29.80;90.00
15922;DHT22;8060;50.948;3.146;2023-06-10T19:08:27;29.80;90.00
15922;DHT22;8060;50.948;3.146;2023-06-10T19:10:57;29.70;90.20
15922;DHT22;8060;50.948;3.146;2023-06-10T19:13:25;29.60;90.10
15922;DHT22;8060;50.948;3.146;2023-06-10T19:15:56;29.50;90.30
15922;DHT22;8060;50.948;3.146;2023-06-10T19:18:28;29.50;90.90
